Time;durP1;ratioP1;P1;durP2;ratioP2;P2;SDS_P1;SDS_P2;PMS_P1;PMS_P2;Temp;Humidity;BMP_temperature;BMP_pressure;BME280_temperature;BME280_humidity;BME280_pressure;Samples;Min_cycle;Max_cycle;Signal;HPM_P1;HPM_P2
2022/04/26 03:36:54;;;;;;;11.15;5.38;;;;;;;13.41;76.97;99693.28;5009297;28;20120;-29
2022/04/26 03:39:19;;;;;;;13.00;6.35;;;;;;;13.64;75.97;99692.25;5009415;28;20022;-29
2022/04/26 03:41:45;;;;;;;14.68;5.57;;;;;;;13.54;76.77;99690.22;5008522;28;20076;-29
2022/04/26 03:44:10;;;;;;;15.05;5.53;;;;;;;13.63;77.17;99698.69;5040796;28;20819;-30
2022/04/26 03:46:36;;;;;;;14.98;6.03;;;;;;;13.99;74.68;99699.91;5009009;28;20099;-30
2022/04/26 03:49:01;;;;;;;15.68;5.60;;;;;;;13.68;76.83;99716.69;5008841;28;20036;-32
2022/04/26 03:51:27;;;;;;;11.40;5.10;;;;;;;13.95;74.66;99704.16;5008996;28;20407;-30
2022/04/26 03:53:52;;;;;;;17.20;5.68;;;;;;;14.19;73.64;99703.91;5009094;28;20540;-29
2022/04/26 03:56:18;;;;;;;8.95;4.75;;;;;;;13.99;73.77;99689.19;5008929;28;20038;-29
2022/04/26 03:58:43;;;;;;;17.02;8.52;;;;;;;14.13;73.72;99718.31;5008841;28;20040;-31
2022/04/26 04:01:09;;;;;;;16.70;9.73;;;;;;;14.03;74.19;99701.03;5008747;28;20041;-29
2022/04/26 04:03:38;;;;;;;12.98;8.18;;;;;;;13.91;75.46;99719.13;5008868;28;20030;-32
2022/04/26 04:06:04;;;;;;;13.82;7.50;;;;;;;14.12;74.64;99714.00;5008933;28;20040;-30
2022/04/26 04:08:30;;;;;;;12.82;5.95;;;;;;;14.26;74.34;99720.59;5009099;28;20034;-28
2022/04/26 04:10:55;;;;;;;13.57;6.20;;;;;;;13.97;75.54;99720.78;5040339;28;20418;-30
2022/04/26 04:13:21;;;;;;;13.80;6.20;;;;;;;14.07;75.51;99715.56;5008939;28;20807;-28
2022/04/26 04:15:46;;;;;;;17.30;6.85;;;;;;;14.16;75.09;99713.25;5008538;28;20430;-30
2022/04/26 04:20:57;;;;;;;15.73;7.13;;;;;;;14.53;73.98;99733.25;5008434;28;20103;-28
2022/04/26 04:23:22;;;;;;;15.32;7.85;;;;;;;14.69;73.74;99745.78;5008762;28;20030;-32
2022/04/26 04:25:48;;;;;;;13.50;7.90;;;;;;;14.88;73.27;99742.72;5008453;28;20076;-32
2022/04/26 04:28:14;;;;;;;16.38;7.55;;;;;;;14.46;73.92;99734.25;5008368;28;20072;-31
2022/04/26 04:30:40;;;;;;;15.57;6.65;;;;;;;14.44;74.78;99733.69;5040096;28;20038;-30
2022/04/26 04:33:05;;;;;;;17.45;6.88;;;;;;;14.78;73.14;99752.28;5008251;28;20088;-29
2022/04/26 04:35:30;;;;;;;14.10;6.72;;;;;;;14.92;72.45;99746.50;5008242;28;20061;-29
2022/04/26 04:37:56;;;;;;;12.25;5.22;;;;;;;15.27;71.15;99762.91;5008357;28;20026;-28
2022/04/26 04:40:21;;;;;;;15.52;5.82;;;;;;;15.31;70.88;99767.78;5008397;28;20491;-28
2022/04/26 04:42:47;;;;;;;12.98;5.93;;;;;;;15.09;73.73;99771.34;5008198;28;20525;-29
2022/04/26 04:45:12;;;;;;;16.23;5.68;;;;;;;15.24;72.63;99768.81;5008139;28;20037;-30
2022/04/26 04:47:38;;;;;;;11.65;5.13;;;;;;;15.36;71.61;99771.28;5008369;28;20084;-31
2022/04/26 04:50:04;;;;;;;12.80;4.90;;;;;;;15.61;70.39;99764.47;5008357;28;20032;-30
2022/04/26 04:52:29;;;;;;;16.00;5.90;;;;;;;15.76;70.01;99779.94;5008419;28;20048;-29
2022/04/26 04:54:55;;;;;;;12.02;5.07;;;;;;;15.81;70.37;99777.25;5007958;28;20038;-29
2022/04/26 04:57:20;;;;;;;10.05;5.25;;;;;;;15.76;69.80;99769.19;5008171;28;20021;-29
2022/04/26 04:59:46;;;;;;;11.38;4.60;;;;;;;15.78;70.24;99791.25;5007847;28;20037;-31
2022/04/26 05:02:11;;;;;;;13.43;5.25;;;;;;;15.75;71.44;99773.75;5006621;28;20030;-31
2022/04/26 05:04:39;;;;;;;14.27;5.15;;;;;;;15.94;71.00;99792.94;5007884;28;20026;-34
2022/04/26 05:07:06;;;;;;;11.50;5.07;;;;;;;15.94;71.11;99786.75;5006669;28;20022;-30
2022/04/26 05:09:31;;;;;;;15.38;4.72;;;;;;;15.77;70.84;99773.47;5006427;28;20494;-29
2022/04/26 05:11:57;;;;;;;16.42;6.30;;;;;;;15.77;72.10;99795.81;5007924;28;20033;-31
2022/04/26 05:14:22;;;;;;;16.27;5.57;;;;;;;15.77;72.72;99781.53;5008050;28;20049;-30
2022/04/26 05:16:48;;;;;;;10.98;5.47;;;;;;;15.99;72.51;99790.25;5007801;28;20642;-29
2022/04/26 05:19:13;;;;;;;13.32;5.28;;;;;;;15.97;73.21;99781.66;5007884;28;20080;-29
2022/04/26 05:21:39;;;;;;;14.43;4.90;;;;;;;16.25;72.92;99785.81;5007851;28;20026;-32
2022/04/26 05:26:48;;;;;;;9.73;4.85;;;;;;;16.53;71.13;99780.25;5007702;28;20032;-29
2022/04/26 05:29:14;;;;;;;16.35;5.15;;;;;;;16.50;70.90;99768.13;5008171;28;20030;-30
2022/04/26 05:31:39;;;;;;;11.85;5.40;;;;;;;16.67;71.81;99784.03;5039444;28;20022;-31
2022/04/26 05:34:05;;;;;;;12.82;5.35;;;;;;;16.81;70.89;99795.16;5039779;28;20048;-28
2022/04/26 05:36:31;;;;;;;14.45;4.93;;;;;;;16.81;69.80;99785.19;5011803;28;20050;-29
2022/04/26 05:38:56;;;;;;;14.80;4.60;;;;;;;16.96;70.08;99784.41;5043204;28;20030;-28
2022/04/26 05:41:21;;;;;;;12.43;5.13;;;;;;;17.24;70.87;99783.09;5011687;28;20037;-28
2022/04/26 05:43:47;;;;;;;12.45;5.97;;;;;;;17.43;71.62;99806.78;5011599;28;20021;-32
2022/04/26 05:46:12;;;;;;;15.05;5.43;;;;;;;17.47;69.39;99783.59;5011747;28;20041;-30
2022/04/26 05:48:40;;;;;;;11.07;4.93;;;;;;;17.50;64.18;99801.13;5011337;28;20113;-29
2022/04/26 05:51:05;;;;;;;14.98;4.30;;;;;;;17.64;64.09;99804.88;5011560;28;20026;-29
2022/04/26 05:53:31;;;;;;;11.93;4.43;;;;;;;17.67;64.37;99797.06;5011743;28;20034;-29
2022/04/26 05:55:56;;;;;;;12.40;4.50;;;;;;;17.92;64.51;99803.50;5043073;28;20033;-29
2022/04/26 05:58:22;;;;;;;18.42;5.45;;;;;;;17.93;61.45;99805.09;5011367;28;20030;-29
2022/04/26 06:00:47;;;;;;;14.40;4.65;;;;;;;18.19;62.16;99821.22;5042887;28;20546;-32
2022/04/26 06:03:13;;;;;;;12.52;4.97;;;;;;;18.18;60.98;99806.09;5011506;28;20114;-30
2022/04/26 06:05:38;;;;;;;21.63;4.53;;;;;;;18.58;60.45;99815.13;5010925;28;20021;-30
2022/04/26 06:08:05;;;;;;;12.63;4.63;;;;;;;18.81;58.58;99819.88;5009841;28;20033;-30
2022/04/26 06:10:31;;;;;;;15.55;4.25;;;;;;;18.84;57.44;99796.91;5010802;28;20095;-29
2022/04/26 06:12:56;;;;;;;13.07;4.85;;;;;;;18.90;58.20;99800.38;5010929;28;20510;-29
2022/04/26 06:15:22;;;;;;;16.42;4.03;;;;;;;19.02;57.09;99800.81;5042678;28;20026;-29
2022/04/26 06:17:48;;;;;;;13.50;3.95;;;;;;;19.33;54.23;99816.81;5011038;28;20026;-34
2022/04/26 06:20:13;;;;;;;12.73;4.15;;;;;;;19.60;55.65;99809.00;5010790;28;20046;-30
2022/04/26 06:22:39;;;;;;;11.95;3.63;;;;;;;19.73;53.39;99817.56;5009295;28;20030;-28
2022/04/26 06:25:05;;;;;;;13.25;3.78;;;;;;;19.75;53.86;99799.16;5010471;28;20042;-32
2022/04/26 06:27:31;;;;;;;10.50;3.65;;;;;;;19.71;53.92;99803.53;5010958;28;20410;-32
2022/04/26 06:29:56;;;;;;;12.13;4.15;;;;;;;19.84;51.76;99813.69;5010870;28;20044;-29
2022/04/26 06:32:22;;;;;;;13.73;3.60;;;;;;;19.93;51.98;99809.25;5010600;28;20026;-29
2022/04/26 06:34:47;;;;;;;13.25;3.40;;;;;;;20.28;51.28;99813.44;5010418;28;20037;-33
2022/04/26 06:37:15;;;;;;;13.05;3.35;;;;;;;20.42;51.72;99818.94;5008890;28;20062;-31
2022/04/26 06:39:41;;;;;;;11.77;4.07;;;;;;;20.43;52.48;99798.91;5010284;28;20049;-34
2022/04/26 06:42:07;;;;;;;11.50;3.38;;;;;;;20.84;50.92;99803.78;5042174;28;20376;-31
2022/04/26 06:44:32;;;;;;;10.55;3.50;;;;;;;20.84;50.53;99809.22;5010380;28;20053;-29
2022/04/26 06:46:58;;;;;;;9.65;3.25;;;;;;;20.90;49.18;99801.78;5009046;28;20068;-29
2022/04/26 06:49:23;;;;;;;11.85;3.30;;;;;;;20.82;48.83;99819.53;5010194;28;20486;-31
2022/04/26 06:51:49;;;;;;;14.70;3.80;;;;;;;21.07;49.37;99817.56;5010352;28;20573;-30
2022/04/26 06:54:14;;;;;;;12.48;4.38;;;;;;;21.20;49.24;99821.41;5010044;28;20025;-30
2022/04/26 06:56:45;;;;;;;10.32;3.50;;;;;;;21.22;50.12;99800.22;5010374;28;20458;-29
2022/04/26 06:59:12;;;;;;;15.10;3.80;;;;;;;21.07;49.82;99795.88;5010177;28;20498;-33
2022/04/26 07:01:38;;;;;;;9.27;3.78;;;;;;;20.98;50.16;99816.59;5041885;28;20257;-29
2022/04/26 07:04:04;;;;;;;12.15;3.25;;;;;;;21.20;50.34;99800.50;5009980;28;20522;-32
2022/04/26 07:06:29;;;;;;;12.73;3.15;;;;;;;21.21;52.17;99796.72;5010122;28;20029;-30
2022/04/26 07:08:56;;;;;;;7.60;3.90;;;;;;;21.19;52.60;99788.06;5009605;28;20041;-29
2022/04/26 07:11:21;;;;;;;12.45;3.58;;;;;;;21.19;52.92;99801.63;5009828;28;20026;-32
2022/04/26 07:13:48;;;;;;;9.63;3.90;;;;;;;21.51;51.49;99813.59;5010034;28;20112;-34
2022/04/26 07:16:14;;;;;;;13.43;3.10;;;;;;;21.62;50.69;99800.69;5009828;28;20026;-31
2022/04/26 07:18:39;;;;;;;11.65;3.70;;;;;;;21.50;52.92;99798.44;5009730;28;20032;-29
2022/04/26 07:21:05;;;;;;;13.95;3.25;;;;;;;21.62;49.19;99800.69;5009496;28;20109;-31
2022/04/26 07:23:30;;;;;;;10.70;3.25;;;;;;;21.70;51.92;99812.72;5009702;28;20483;-29
2022/04/26 07:25:56;;;;;;;9.80;3.53;;;;;;;21.47;50.58;99793.59;5009747;28;20025;-30
2022/04/26 07:28:22;;;;;;;14.98;3.63;;;;;;;21.84;49.39;99808.13;5009777;28;20116;-30
2022/04/26 07:30:48;;;;;;;13.27;3.47;;;;;;;22.15;50.22;99818.38;5007923;28;20025;-29
2022/04/26 07:35:58;;;;;;;10.10;3.00;;;;;;;22.55;44.53;99819.50;5009270;28;20520;-30
2022/04/26 07:38:23;;;;;;;12.32;2.90;;;;;;;22.48;47.71;99821.03;5009773;28;20025;-34
2022/04/26 07:40:49;;;;;;;10.15;2.90;;;;;;;22.16;45.46;99809.16;5009494;28;20033;-31
2022/04/26 07:43:14;;;;;;;10.77;3.30;;;;;;;22.36;48.23;99802.53;5009539;28;20026;-29
2022/04/26 07:45:41;;;;;;;12.75;3.30;;;;;;;22.54;46.49;99808.94;5009453;28;20037;-31
2022/04/26 07:48:07;;;;;;;10.38;2.80;;;;;;;22.76;47.73;99814.44;5009657;28;20081;-30
2022/04/26 07:50:34;;;;;;;7.77;2.97;;;;;;;22.63;44.29;99790.78;5008957;28;20617;-29
2022/04/26 07:53:01;;;;;;;9.48;2.75;;;;;;;23.00;44.96;99805.19;5040454;28;20037;-31
2022/04/26 07:55:30;;;;;;;14.38;3.90;;;;;;;23.05;42.95;99819.50;5040970;28;20164;-29
2022/04/26 07:58:00;;;;;;;10.27;4.75;;;;;;;23.33;42.51;99813.13;5009228;28;20038;-29
2022/04/26 08:00:26;;;;;;;9.45;3.33;;;;;;;23.20;43.07;99804.72;5007783;28;20025;-31
2022/04/26 08:02:51;;;;;;;7.68;2.60;;;;;;;23.49;40.38;99794.50;5008624;28;20495;-32
2022/04/26 08:05:17;;;;;;;9.50;2.15;;;;;;;23.95;38.98;99818.63;5008997;28;20140;-29
2022/04/26 08:07:42;;;;;;;15.55;6.35;;;;;;;24.02;39.68;99810.78;5009084;28;20115;-29
2022/04/26 08:10:12;;;;;;;9.10;3.92;;;;;;;24.01;38.64;99813.84;5008964;28;20409;-29
2022/04/26 08:12:39;;;;;;;6.97;1.70;;;;;;;23.97;38.03;99819.09;5008725;28;20034;-33
2022/04/26 08:15:05;;;;;;;9.43;2.05;;;;;;;24.29;37.43;99806.19;5008635;28;20026;-30
2022/04/26 08:17:30;;;;;;;7.85;1.52;;;;;;;24.30;36.41;99823.38;5008591;28;20026;-29
2022/04/26 08:19:56;;;;;;;8.85;1.55;;;;;;;24.33;37.19;99814.56;5008561;28;20026;-29
2022/04/26 08:22:21;;;;;;;7.20;2.13;;;;;;;24.81;35.92;99819.94;5008760;28;20022;-29
2022/04/26 08:27:33;;;;;;;9.35;1.90;;;;;;;24.92;35.36;99812.25;5008698;28;20049;-29
2022/04/26 08:30:00;;;;;;;5.90;2.00;;;;;;;24.71;34.53;99793.00;5008343;28;20034;-32
2022/04/26 08:32:26;;;;;;;6.68;1.75;;;;;;;24.58;35.91;99800.22;5040482;28;20092;-32
2022/04/26 08:34:58;;;;;;;6.00;2.10;;;;;;;24.74;34.51;99810.63;5040038;28;20028;-31
2022/04/26 08:37:24;;;;;;;6.75;1.77;;;;;;;25.08;35.57;99826.22;5008337;28;20085;-29
2022/04/26 08:39:52;;;;;;;8.88;1.83;;;;;;;24.91;35.85;99823.47;5008518;28;20034;-32
2022/04/26 08:42:39;;;;;;;8.65;1.98;;;;;;;24.99;34.42;99822.69;5039963;28;20044;-29
2022/04/26 08:45:07;;;;;;;6.18;1.40;;;;;;;25.31;34.67;99828.78;5007150;28;20025;-29
2022/04/26 08:53:01;;;;;;;11.77;1.80;;;;;;;25.68;34.73;99824.50;5008111;28;20115;-34
2022/04/26 08:55:27;;;;;;;7.63;1.58;;;;;;;25.91;33.82;99807.91;5008476;28;20522;-29
2022/04/26 08:57:53;;;;;;;9.82;1.80;;;;;;;26.15;34.53;99818.25;5008332;28;20510;-32
2022/04/26 09:00:18;;;;;;;5.05;1.50;;;;;;;25.54;33.19;99822.00;5008257;28;20069;-28
2022/04/26 09:02:59;;;;;;;9.95;2.30;;;;;;;25.90;34.13;99812.59;5008033;28;20044;-34
2022/04/26 09:05:25;;;;;;;6.47;1.80;;;;;;;26.28;35.60;99802.78;5007981;28;20038;-30
2022/04/26 09:07:50;;;;;;;6.28;1.70;;;;;;;26.15;34.29;99807.31;5008456;28;20096;-30
2022/04/26 09:10:20;;;;;;;6.50;1.92;;;;;;;26.32;36.50;99801.78;5039359;28;20485;-29
2022/04/26 09:13:09;;;;;;;7.60;1.60;;;;;;;26.34;33.90;99801.44;5008288;28;20026;-29
2022/04/26 09:15:55;;;;;;;7.82;1.73;;;;;;;26.14;33.76;99805.72;5007965;28;20045;-33
2022/04/26 09:18:30;;;;;;;5.68;1.45;;;;;;;26.16;32.51;99792.53;5008432;28;20045;-30
2022/04/26 09:21:09;;;;;;;3.80;1.42;;;;;;;26.22;31.25;99783.03;5007912;28;20029;-32
2022/04/26 09:23:34;;;;;;;3.75;1.20;;;;;;;25.70;30.54;99785.97;5006917;28;20034;-29
2022/04/26 09:26:11;;;;;;;5.95;1.40;;;;;;;25.66;30.54;99803.03;5007758;28;20030;-29
2022/04/26 09:28:39;;;;;;;2.20;1.05;;;;;;;25.87;31.14;99774.97;5008158;28;20092;-32
2022/04/26 09:31:34;;;;;;;4.00;1.30;;;;;;;26.15;30.31;99790.94;5007937;28;20049;-32
2022/04/26 09:34:04;;;;;;;3.42;1.20;;;;;;;26.30;31.68;99787.63;5039769;28;20045;-34
2022/04/26 09:36:35;;;;;;;2.92;1.30;;;;;;;25.86;31.42;99784.28;5039425;28;20095;-36
2022/04/26 09:39:03;;;;;;;11.10;1.90;;;;;;;26.39;31.15;99784.84;5007415;28;20483;-29
2022/04/26 09:41:29;;;;;;;5.20;1.27;;;;;;;26.58;31.00;99766.09;5007892;28;20118;-31
2022/04/26 09:44:02;;;;;;;7.53;1.30;;;;;;;26.68;30.88;99777.75;5007825;28;20033;-36
2022/04/26 09:46:43;;;;;;;3.30;1.20;;;;;;;26.38;31.10;99775.84;5007879;28;20514;-29
2022/04/26 09:49:10;;;;;;;6.68;1.25;;;;;;;25.97;32.92;99760.16;5007401;28;20037;-29
2022/04/26 09:51:39;;;;;;;8.43;1.67;;;;;;;26.58;32.10;99771.56;5007879;28;20030;-31
2022/04/26 09:54:05;;;;;;;7.03;1.48;;;;;;;26.59;31.36;99755.94;5039350;28;20034;-29
2022/04/26 09:56:31;;;;;;;5.38;0.98;;;;;;;26.55;30.26;99771.38;5007720;28;20422;-30
2022/04/26 09:58:59;;;;;;;7.60;1.30;;;;;;;26.78;30.42;99758.97;5007439;28;20758;-30
2022/04/26 10:01:31;;;;;;;5.65;1.60;;;;;;;26.85;30.58;99748.31;5007467;28;20084;-35
2022/04/26 10:04:04;;;;;;;6.93;1.50;;;;;;;27.34;29.17;99744.94;5006126;28;20037;-33
2022/04/26 10:06:34;;;;;;;3.50;0.93;;;;;;;27.42;29.24;99756.94;5006921;28;20133;-31
2022/04/26 10:09:01;;;;;;;3.45;0.90;;;;;;;27.40;28.29;99735.38;5007104;28;20044;-31
2022/04/26 10:11:28;;;;;;;8.60;1.30;;;;;;;27.26;30.17;99723.94;5007378;28;20036;-28
2022/04/26 10:13:54;;;;;;;3.67;1.10;;;;;;;27.79;29.07;99746.03;5007620;28;20491;-29
2022/04/26 10:16:23;;;;;;;5.13;1.70;;;;;;;27.70;29.93;99728.88;5007055;28;20038;-29
2022/04/26 10:18:50;;;;;;;5.10;1.50;;;;;;;28.36;29.07;99750.56;5038885;28;20487;-30
2022/04/26 10:21:21;;;;;;;4.82;1.10;;;;;;;28.02;28.05;99743.66;5009241;28;20571;-29
2022/04/26 10:24:03;;;;;;;5.22;1.10;;;;;;;28.17;27.82;99744.88;5011134;28;20038;-30
2022/04/26 10:26:30;;;;;;;6.32;1.05;;;;;;;28.20;26.93;99745.00;5009407;28;20129;-30
2022/04/26 10:29:08;;;;;;;5.35;1.15;;;;;;;28.76;28.20;99749.78;5010467;28;20034;-29
2022/04/26 10:31:39;;;;;;;8.55;1.77;;;;;;;28.58;28.27;99748.47;5010904;28;20490;-30
2022/04/26 10:34:26;;;;;;;5.57;1.10;;;;;;;28.00;26.69;99746.72;5009559;28;20518;-29
2022/04/26 10:37:00;;;;;;;3.30;1.00;;;;;;;28.26;28.97;99742.81;5009331;28;20077;-32
2022/04/26 10:39:38;;;;;;;3.53;1.00;;;;;;;28.71;26.01;99751.94;5009319;28;20705;-36
2022/04/26 10:42:11;;;;;;;6.78;1.10;;;;;;;28.39;25.56;99763.56;5010926;28;20073;-31
2022/04/26 10:44:44;;;;;;;4.47;1.33;;;;;;;28.49;26.08;99761.50;5010292;28;20030;-39
2022/04/26 10:47:11;;;;;;;4.43;1.20;;;;;;;27.90;26.76;99771.84;5010709;28;20025;-29
2022/04/26 10:49:39;;;;;;;7.07;1.33;;;;;;;27.49;26.67;99781.03;5010026;28;20080;-37
2022/04/26 10:52:13;;;;;;;4.38;1.13;;;;;;;26.84;27.98;99774.06;5009205;28;20417;-30
2022/04/26 10:55:03;;;;;;;3.97;1.40;;;;;;;26.37;29.29;99767.97;5010111;28;20029;-29
2022/04/26 10:57:35;;;;;;;4.70;1.00;;;;;;;26.16;29.28;99767.94;5010682;28;20505;-30
2022/04/26 11:00:01;;;;;;;6.78;1.63;;;;;;;25.94;29.31;99778.00;5010150;28;20061;-32
2022/04/26 11:02:32;;;;;;;4.43;1.35;;;;;;;25.89;29.51;99771.91;5009006;28;20038;-32
2022/04/26 11:05:04;;;;;;;3.55;1.17;;;;;;;25.71;29.87;99774.72;5041625;28;20414;-31
2022/04/26 11:07:30;;;;;;;6.00;1.58;;;;;;;25.52;29.65;99764.19;5041770;28;20037;-29
2022/04/26 11:09:57;;;;;;;4.85;1.55;;;;;;;25.83;31.29;99774.03;5010070;28;20088;-29
2022/04/26 11:12:24;;;;;;;8.70;1.40;;;;;;;25.62;31.95;99766.56;5041684;28;20030;-30
2022/04/26 11:14:53;;;;;;;4.50;1.25;;;;;;;25.72;33.38;99783.72;5009850;28;20474;-30
2022/04/26 11:17:21;;;;;;;4.68;1.38;;;;;;;25.56;33.31;99781.53;5008604;28;20033;-29
2022/04/26 11:19:53;;;;;;;5.03;1.60;;;;;;;25.41;33.58;99787.50;5010068;28;20022;-29
2022/04/26 11:22:20;;;;;;;5.13;1.50;;;;;;;25.45;33.21;99774.81;5009925;28;20116;-29
2022/04/26 11:30:25;;;;;;;4.18;1.38;;;;;;;25.43;32.04;99777.06;5009746;28;20096;-30
2022/04/26 11:32:51;;;;;;;5.05;1.60;;;;;;;25.71;30.83;99760.28;5008858;28;20109;-30
2022/04/26 11:35:21;;;;;;;8.13;1.67;;;;;;;25.83;32.65;99747.50;5009050;28;20110;-31
2022/04/26 11:37:55;;;;;;;6.00;1.73;;;;;;;26.26;31.90;99756.63;5041239;28;20030;-31
2022/04/26 11:40:28;;;;;;;6.55;1.70;;;;;;;26.23;30.24;99754.53;5009273;28;20379;-30
2022/04/26 11:42:56;;;;;;;7.97;1.80;;;;;;;26.49;31.16;99729.75;5009148;28;20438;-31
2022/04/26 11:45:28;;;;;;;7.88;2.50;;;;;;;26.83;28.71;99739.63;5024290;28;20072;-30
2022/04/26 11:47:54;;;;;;;7.93;2.13;;;;;;;27.12;28.58;99724.22;5008963;28;20052;-32
2022/04/26 11:50:23;;;;;;;4.97;2.05;;;;;;;27.09;29.45;99727.63;5008275;28;20045;-31
2022/04/26 11:52:50;;;;;;;9.18;2.20;;;;;;;27.40;28.60;99708.00;5007866;28;20532;-33
2022/04/26 11:55:32;;;;;;;6.15;1.70;;;;;;;27.38;28.10;99703.97;5008806;28;20478;-29
2022/04/26 11:58:18;;;;;;;8.48;1.67;;;;;;;27.79;29.81;99683.81;5040788;28;20037;-29
2022/04/26 12:01:00;;;;;;;6.53;1.98;;;;;;;27.97;29.45;99689.88;5008959;28;20040;-29
2022/04/26 12:03:45;;;;;;;8.02;1.85;;;;;;;27.60;29.08;99673.44;5009343;28;20026;-33
2022/04/26 12:06:12;;;;;;;8.35;2.20;;;;;;;27.04;29.43;99684.84;5008921;28;20030;-29
2022/04/26 12:08:46;;;;;;;7.60;2.17;;;;;;;26.85;30.94;99693.59;5040166;28;20037;-33
2022/04/26 12:11:13;;;;;;;8.88;1.80;;;;;;;26.51;30.26;99682.94;5008885;28;20030;-30
2022/04/26 12:13:38;;;;;;;5.50;1.63;;;;;;;26.06;30.91;99679.75;5009136;28;20081;-32
2022/04/26 12:16:15;;;;;;;8.93;1.85;;;;;;;26.23;30.54;99694.41;5040343;28;20399;-32
2022/04/26 12:19:07;;;;;;;8.82;2.60;;;;;;;26.38;31.07;99695.75;5040313;28;20481;-30
2022/04/26 12:21:54;;;;;;;11.75;3.20;;;;;;;26.29;31.11;99679.41;5007071;28;20049;-29
2022/04/26 12:24:25;;;;;;;11.00;2.63;;;;;;;26.31;32.25;99677.16;5008402;28;20113;-30
2022/04/26 12:26:58;;;;;;;9.35;3.03;;;;;;;26.31;32.13;99666.22;5008278;28;20030;-32
2022/04/26 12:29:26;;;;;;;6.50;2.10;;;;;;;26.17;31.41;99671.16;5006956;28;20103;-29
2022/04/26 12:31:52;;;;;;;9.40;3.40;;;;;;;26.26;32.76;99666.44;5008163;28;20088;-29
2022/04/26 12:34:26;;;;;;;11.52;2.45;;;;;;;26.52;31.93;99673.59;5008342;28;20026;-29
2022/04/26 12:37:00;;;;;;;9.35;2.05;;;;;;;26.90;30.93;99672.63;5008012;28;20132;-29
2022/04/26 12:39:42;;;;;;;3.72;1.80;;;;;;;28.35;30.66;99672.16;5039789;28;20034;-32
2022/04/26 12:42:10;;;;;;;6.32;2.22;;;;;;;27.73;31.26;99666.00;5008122;28;20644;-29
2022/04/26 12:44:39;;;;;;;8.48;2.05;;;;;;;27.87;31.53;99682.13;5007540;28;20073;-34
2022/04/26 12:52:42;;;;;;;9.57;1.80;;;;;;;28.07;30.06;99655.69;5007848;28;20430;-29
2022/04/26 12:55:08;;;;;;;8.93;2.30;;;;;;;28.41;28.25;99646.09;5008280;28;20499;-29
2022/04/26 12:57:50;;;;;;;6.18;1.88;;;;;;;28.74;27.24;99658.78;5008165;28;20072;-30
2022/04/26 13:00:17;;;;;;;9.13;2.00;;;;;;;28.28;28.37;99660.19;5006713;28;20032;-29
2022/04/26 13:02:42;;;;;;;7.03;2.17;;;;;;;28.11;27.54;99658.53;5007747;28;20049;-30
2022/04/26 13:05:08;;;;;;;7.85;2.28;;;;;;;29.13;29.07;99647.25;5007526;28;20022;-30
2022/04/26 13:07:33;;;;;;;7.18;1.90;;;;;;;28.67;27.75;99652.28;5008042;28;20053;-32
2022/04/26 13:09:59;;;;;;;8.38;2.10;;;;;;;28.35;27.78;99652.97;5007987;28;20026;-29
2022/04/26 13:12:24;;;;;;;6.65;2.25;;;;;;;28.12;27.92;99649.19;5007912;28;20037;-32
2022/04/26 13:14:50;;;;;;;10.27;2.00;;;;;;;28.17;29.53;99646.19;5007307;28;20038;-31
2022/04/26 13:17:20;;;;;;;5.20;1.80;;;;;;;27.53;29.65;99640.31;5007960;28;20033;-30
2022/04/26 13:19:46;;;;;;;7.10;1.80;;;;;;;26.99;29.05;99648.69;5007646;28;20029;-30
2022/04/26 13:22:13;;;;;;;9.90;2.15;;;;;;;26.58;30.71;99651.22;5039702;28;20033;-38
2022/04/26 13:24:38;;;;;;;8.23;1.92;;;;;;;26.45;31.39;99647.59;5007691;28;20033;-32
2022/04/26 13:27:06;;;;;;;10.27;2.50;;;;;;;26.40;32.09;99638.81;5007932;28;20517;-29
2022/04/26 13:29:31;;;;;;;8.68;2.10;;;;;;;26.44;30.80;99646.00;5007796;28;20072;-31
2022/04/26 13:31:58;;;;;;;5.03;1.70;;;;;;;26.38;31.28;99643.81;5007681;28;20061;-29
2022/04/26 13:34:23;;;;;;;6.65;1.77;;;;;;;26.65;30.83;99634.25;5006301;28;20548;-29
2022/04/26 13:36:49;;;;;;;9.20;1.88;;;;;;;26.88;30.00;99626.44;5007268;28;20055;-29
2022/04/26 13:39:15;;;;;;;8.68;2.13;;;;;;;27.36;29.54;99643.28;5007625;28;20038;-32
2022/04/26 13:41:40;;;;;;;5.82;1.75;;;;;;;27.41;29.39;99635.66;5007531;28;20117;-30
2022/04/26 13:44:05;;;;;;;12.13;2.00;;;;;;;27.37;30.84;99632.00;5007517;28;20405;-33
2022/04/26 13:46:31;;;;;;;9.93;1.85;;;;;;;27.58;29.53;99631.91;5007231;28;20418;-32
2022/04/26 13:48:57;;;;;;;6.53;2.20;;;;;;;28.26;28.43;99633.13;5007195;28;20581;-29
2022/04/26 13:51:27;;;;;;;8.85;2.30;;;;;;;28.26;29.26;99622.19;5007281;28;20065;-29
2022/04/26 13:53:52;;;;;;;6.35;2.05;;;;;;;28.03;29.21;99628.19;5039249;28;20053;-32
2022/04/26 13:56:17;;;;;;;6.97;1.85;;;;;;;27.67;29.51;99606.31;5009882;28;20065;-31
2022/04/26 13:58:43;;;;;;;5.93;2.08;;;;;;;28.01;29.41;99610.47;5011194;28;20022;-31
2022/04/26 14:01:08;;;;;;;8.65;2.60;;;;;;;27.62;29.35;99599.94;5011386;28;20053;-29
2022/04/26 14:03:34;;;;;;;9.07;1.90;;;;;;;27.30;29.46;99603.59;5011150;28;20030;-30
2022/04/26 14:05:59;;;;;;;10.93;1.70;;;;;;;26.91;30.60;99605.81;5011118;28;20029;-29
2022/04/26 14:08:25;;;;;;;8.70;1.80;;;;;;;26.90;30.31;99620.66;5010864;28;20508;-31
2022/04/26 14:10:50;;;;;;;8.45;1.70;;;;;;;26.60;31.24;99599.72;5010755;28;20116;-29
2022/04/26 14:13:16;;;;;;;9.90;1.95;;;;;;;26.49;30.96;99606.72;5010795;28;20030;-30
2022/04/26 14:23:53;;;;;;;9.88;2.92;;;;;;;25.74;33.63;99623.03;5010518;28;20080;-31
2022/04/26 14:26:20;;;;;;;6.50;1.90;;;;;;;25.76;34.22;99628.97;5010250;28;20034;-28
2022/04/26 14:28:45;;;;;;;7.50;2.00;;;;;;;25.40;34.64;99611.22;5010415;28;20525;-32
2022/04/26 14:31:11;;;;;;;12.35;2.35;;;;;;;25.36;36.33;99623.91;5010527;28;20034;-29
2022/04/26 14:33:36;;;;;;;4.22;1.75;;;;;;;25.19;35.79;99636.47;5010318;28;20021;-33
2022/04/26 14:36:02;;;;;;;15.80;2.30;;;;;;;25.31;36.51;99635.81;5010346;28;20054;-31
2022/04/26 14:38:27;;;;;;;9.10;2.25;;;;;;;25.23;36.13;99626.53;5010188;28;20036;-31
2022/04/26 14:40:53;;;;;;;9.55;1.60;;;;;;;25.05;35.78;99646.81;5009951;28;20025;-29
2022/04/26 14:43:20;;;;;;;8.13;1.83;;;;;;;24.92;39.24;99645.06;5010098;28;20776;-29
2022/04/26 14:45:45;;;;;;;10.55;1.90;;;;;;;24.54;39.14;99643.03;5010022;28;20104;-29
2022/04/26 14:48:16;;;;;;;6.72;2.08;;;;;;;24.51;39.30;99638.25;5010075;28;20026;-29
2022/04/26 14:50:42;;;;;;;7.53;2.90;;;;;;;24.66;38.07;99624.91;5009929;28;20018;-31
2022/04/26 14:53:08;;;;;;;13.40;3.33;;;;;;;24.78;38.25;99612.53;5010168;28;20044;-32
2022/04/26 14:55:33;;;;;;;13.50;2.13;;;;;;;24.32;35.82;99623.00;5041443;28;20034;-29
2022/04/26 14:57:59;;;;;;;9.70;1.85;;;;;;;24.06;37.48;99612.91;5010170;28;20030;-30
2022/04/26 15:00:25;;;;;;;8.95;1.90;;;;;;;24.06;38.04;99598.50;5009374;28;20037;-29
2022/04/26 15:02:50;;;;;;;6.68;2.50;;;;;;;23.55;40.91;99591.84;5009583;28;20041;-34
2022/04/26 15:05:16;;;;;;;8.27;2.00;;;;;;;23.54;42.58;99596.47;5009753;28;20399;-29
2022/04/26 15:10:27;;;;;;;9.13;2.03;;;;;;;23.96;41.43;99601.53;5009530;28;20029;-33
2022/04/26 15:18:21;;;;;;;5.13;1.60;;;;;;;23.99;39.22;99634.38;5009548;28;20564;-29
2022/04/26 15:20:50;;;;;;;11.18;2.15;;;;;;;24.18;39.45;99644.16;5009064;28;20022;-29
2022/04/26 15:23:17;;;;;;;6.03;1.67;;;;;;;23.89;41.98;99633.91;5009268;28;20092;-30
2022/04/26 15:25:48;;;;;;;5.43;2.30;;;;;;;23.54;42.85;99642.75;5009011;28;20477;-32
2022/04/26 15:28:14;;;;;;;5.97;1.80;;;;;;;23.34;42.07;99648.78;5009414;28;20049;-30
2022/04/26 15:30:42;;;;;;;5.20;1.70;;;;;;;23.56;41.14;99642.41;5040376;28;20038;-30
2022/04/26 15:33:07;;;;;;;5.20;1.90;;;;;;;23.60;42.49;99651.56;5008885;28;20026;-31
2022/04/26 15:35:33;;;;;;;7.13;1.65;;;;;;;23.82;41.49;99647.97;5009031;28;20064;-29
2022/04/26 15:37:58;;;;;;;7.57;1.83;;;;;;;23.81;42.37;99651.81;5009052;28;20488;-29
2022/04/26 15:40:24;;;;;;;6.20;2.00;;;;;;;24.22;42.05;99659.53;5008876;28;20022;-31
2022/04/26 15:42:49;;;;;;;8.98;1.88;;;;;;;23.85;39.72;99650.06;5008548;28;20625;-31
2022/04/26 15:45:15;;;;;;;4.35;1.65;;;;;;;23.74;39.90;99665.88;5008749;28;20438;-30
2022/04/26 15:47:40;;;;;;;4.85;1.70;;;;;;;23.69;41.91;99673.38;5008557;28;20030;-31
2022/04/26 15:50:06;;;;;;;18.45;2.50;;;;;;;23.56;39.49;99659.56;5007398;28;20057;-31
2022/04/26 15:52:32;;;;;;;5.32;1.67;;;;;;;23.48;40.63;99663.06;5008641;28;20037;-34